createdAt,value
2018-10-19T00:00:11.415Z,9.65
2018-10-19T00:02:42.055Z,9.80
2018-10-19T00:05:12.672Z,9.64
2018-10-19T00:07:42.871Z,9.68
2018-10-19T00:10:13.291Z,9.52
2018-10-19T00:12:43.656Z,9.25
2018-10-19T00:15:14.009Z,9.22
2018-10-19T00:17:44.299Z,9.06
2018-10-19T00:20:14.800Z,9.06
2018-10-19T00:22:45.770Z,8.96
2018-10-19T00:25:16.330Z,8.88
2018-10-19T00:27:47.139Z,8.75
2018-10-19T00:30:17.608Z,8.64
2018-10-19T00:32:48.124Z,8.67
2018-10-19T00:35:18.600Z,8.61
2018-10-19T00:37:49.228Z,8.57
2018-10-19T00:40:19.763Z,8.56
2018-10-19T00:42:50.031Z,8.56
2018-10-19T00:45:24.630Z,8.51
2018-10-19T00:47:54.997Z,8.50
2018-10-19T00:50:25.492Z,8.42
2018-10-19T00:52:55.726Z,8.34
2018-10-19T00:55:26.001Z,8.27
2018-10-19T00:57:56.412Z,8.22
2018-10-19T01:00:26.702Z,8.16
2018-10-19T01:02:57.292Z,8.11
2018-10-19T01:05:27.620Z,8.06
2018-10-19T01:07:58.154Z,8.02
2018-10-19T01:10:28.719Z,7.93
2018-10-19T01:13:00.048Z,7.90
2018-10-19T01:15:30.962Z,7.85
2018-10-19T01:18:01.340Z,7.81
2018-10-19T01:20:31.752Z,7.74
2018-10-19T01:23:02.191Z,7.65
2018-10-19T01:25:32.747Z,7.62
2018-10-19T01:28:03.585Z,7.59
2018-10-19T01:30:34.023Z,7.56
2018-10-19T01:33:04.336Z,7.53
2018-10-19T01:35:34.765Z,7.48
2018-10-19T01:38:05.147Z,7.48
2018-10-19T01:40:35.729Z,7.49
2018-10-19T01:43:06.328Z,7.42
2018-10-19T01:45:36.736Z,7.32
2018-10-19T01:48:07.149Z,7.32
2018-10-19T01:50:37.435Z,7.26
2018-10-19T01:53:08.107Z,7.26
2018-10-19T01:55:38.515Z,7.15
2018-10-19T01:58:08.988Z,7.09
2018-10-19T02:00:39.240Z,7.05
2018-10-19T02:03:09.719Z,6.99
2018-10-19T02:05:40.622Z,6.95
2018-10-19T02:08:11.802Z,6.94
2018-10-19T02:10:42.011Z,6.91
2018-10-19T02:13:12.388Z,6.83
2018-10-19T02:15:42.793Z,6.76
2018-10-19T02:18:13.280Z,6.68
2018-10-19T02:20:43.651Z,6.64
2018-10-19T02:23:14.181Z,6.66
2018-10-19T02:25:44.409Z,6.60
2018-10-19T02:28:14.876Z,6.51
2018-10-19T02:30:45.375Z,6.55
2018-10-19T02:33:15.963Z,6.56
2018-10-19T02:35:46.440Z,6.65
2018-10-19T02:38:16.667Z,6.60
2018-10-19T02:40:46.980Z,6.57
2018-10-19T02:43:17.445Z,6.58
2018-10-19T02:45:47.747Z,6.57
2018-10-19T02:48:18.096Z,6.52
2018-10-19T02:50:48.484Z,6.46
2018-10-19T02:53:18.963Z,6.26
2018-10-19T02:55:49.248Z,6.27
2018-10-19T02:58:19.524Z,6.29
2018-10-19T03:00:49.926Z,6.28
2018-10-19T03:03:20.296Z,6.31
2018-10-19T03:05:50.478Z,6.30
2018-10-19T03:08:20.937Z,6.27
2018-10-19T03:10:51.349Z,6.34
2018-10-19T03:13:21.559Z,6.34
2018-10-19T03:15:51.888Z,6.31
2018-10-19T03:18:22.261Z,6.37
2018-10-19T03:20:52.655Z,6.31
2018-10-19T03:23:22.887Z,6.32
2018-10-19T03:25:53.074Z,6.37
2018-10-19T03:28:23.575Z,6.36
2018-10-19T03:30:54.083Z,6.33
2018-10-19T03:33:24.297Z,6.34
2018-10-19T03:35:54.714Z,6.29
2018-10-19T03:38:25.262Z,6.23
2018-10-19T03:40:55.720Z,6.21
2018-10-19T03:43:26.265Z,6.24
2018-10-19T03:45:56.534Z,6.25
2018-10-19T03:48:26.907Z,6.25
2018-10-19T03:50:57.298Z,6.25
2018-10-19T03:53:27.711Z,6.43
2018-10-19T03:55:58.077Z,6.37
2018-10-19T03:58:28.453Z,6.34
2018-10-19T04:00:58.876Z,6.17
2018-10-19T04:03:29.206Z,6.02
2018-10-19T04:05:59.807Z,5.94
2018-10-19T04:08:30.172Z,5.72
2018-10-19T04:11:00.703Z,5.64
2018-10-19T04:13:30.981Z,5.54
2018-10-19T04:16:01.305Z,5.42
2018-10-19T04:18:31.765Z,5.49
2018-10-19T04:21:02.204Z,5.34
2018-10-19T04:23:32.977Z,5.30
2018-10-19T04:26:03.443Z,5.24
2018-10-19T04:28:33.895Z,5.25
2018-10-19T04:31:04.288Z,5.33
2018-10-19T04:33:35.151Z,5.38
2018-10-19T04:36:05.700Z,5.35
2018-10-19T04:38:36.130Z,5.34
2018-10-19T04:41:06.649Z,5.29
2018-10-19T04:43:36.720Z,5.22
2018-10-19T04:46:07.185Z,5.30
2018-10-19T04:48:37.260Z,5.39
2018-10-19T04:51:07.623Z,5.37
2018-10-19T04:53:37.841Z,5.43
2018-10-19T04:56:08.293Z,5.57
2018-10-19T04:58:38.743Z,5.50
2018-10-19T05:01:09.667Z,5.43
2018-10-19T05:03:40.144Z,5.60
2018-10-19T05:06:10.652Z,5.61
2018-10-19T05:08:41.132Z,5.54
2018-10-19T05:11:11.688Z,5.47
2018-10-19T05:13:48.513Z,5.32
2018-10-19T05:16:18.770Z,5.33
2018-10-19T05:18:49.150Z,5.31
2018-10-19T05:21:19.548Z,5.30
2018-10-19T05:23:50.260Z,5.39
2018-10-19T05:26:21.009Z,5.46
2018-10-19T05:28:51.527Z,5.54
2018-10-19T05:31:24.600Z,5.49
2018-10-19T05:33:56.958Z,5.39
2018-10-19T05:36:27.386Z,5.30
2018-10-19T05:38:57.852Z,5.30
2018-10-19T05:41:28.437Z,5.27
2018-10-19T05:43:58.846Z,5.28
2018-10-19T05:46:29.325Z,5.19
2018-10-19T05:48:59.551Z,5.07
2018-10-19T05:51:29.885Z,5.03
2018-10-19T05:54:00.198Z,4.83
2018-10-19T05:56:30.507Z,4.81
2018-10-19T05:59:00.916Z,4.74
2018-10-19T06:01:31.273Z,4.92
2018-10-19T06:04:01.831Z,4.79
2018-10-19T06:06:32.372Z,4.76
2018-10-19T06:09:02.987Z,4.85
2018-10-19T06:11:33.307Z,5.07
2018-10-19T06:14:03.630Z,5.26
2018-10-19T06:16:33.927Z,5.40
2018-10-19T06:19:05.703Z,5.67
2018-10-19T06:21:36.043Z,5.98
2018-10-19T06:24:07.774Z,7.02
2018-10-19T06:26:38.136Z,7.67
2018-10-19T06:29:08.829Z,8.59
2018-10-19T06:31:39.296Z,9.65
2018-10-19T06:34:09.800Z,10.03
2018-10-19T06:36:40.388Z,10.22
2018-10-19T06:39:12.343Z,10.46
2018-10-19T06:41:43.167Z,11.76
2018-10-19T06:44:13.639Z,12.53
2018-10-19T06:46:44.209Z,12.56
2018-10-19T06:49:15.368Z,13.43
2018-10-19T06:51:49.620Z,13.40
2018-10-19T06:54:20.112Z,13.34
2018-10-19T06:56:50.580Z,13.66
2018-10-19T06:59:20.984Z,13.59
2018-10-19T07:01:51.315Z,13.92
2018-10-19T07:04:21.664Z,14.06
2018-10-19T07:06:52.196Z,14.12
2018-10-19T07:09:22.445Z,14.08
2018-10-19T07:11:52.867Z,13.33
2018-10-19T07:14:23.836Z,13.56
2018-10-19T07:16:54.045Z,13.17
2018-10-19T07:19:24.705Z,14.14
2018-10-19T07:21:55.201Z,14.84
2018-10-19T07:24:25.664Z,15.60
2018-10-19T07:26:56.163Z,16.04
2018-10-19T07:29:26.414Z,15.48
2018-10-19T07:31:57.227Z,16.06
2018-10-19T07:34:27.568Z,15.87
2018-10-19T07:36:57.960Z,14.79
2018-10-19T07:39:28.452Z,13.97
2018-10-19T07:41:58.684Z,13.48
2018-10-19T07:44:29.103Z,14.65
2018-10-19T07:46:59.512Z,16.22
2018-10-19T07:49:30.056Z,16.91
2018-10-19T07:52:00.691Z,17.27
2018-10-19T07:54:31.117Z,17.75
2018-10-19T07:57:01.537Z,17.25
2018-10-19T07:59:31.875Z,17.42
2018-10-19T08:02:02.319Z,17.99
2018-10-19T08:04:32.735Z,17.59
2018-10-19T08:07:03.248Z,17.53
2018-10-19T08:09:33.638Z,16.99
2018-10-19T08:12:04.117Z,17.31
2018-10-19T08:14:34.474Z,17.74
2018-10-19T08:17:04.891Z,17.83
2018-10-19T08:19:35.424Z,16.98
2018-10-19T08:22:05.945Z,16.44
2018-10-19T08:24:36.308Z,16.91
2018-10-19T08:27:06.835Z,15.96
2018-10-19T08:29:37.266Z,16.74
2018-10-19T08:32:08.466Z,17.14
2018-10-19T08:34:39.102Z,16.07
2018-10-19T08:37:09.644Z,16.22
2018-10-19T08:39:40.022Z,16.67
2018-10-19T08:42:10.394Z,15.41
2018-10-19T08:44:40.848Z,16.22
2018-10-19T08:47:11.362Z,17.10
2018-10-19T08:49:41.959Z,17.31
2018-10-19T08:52:12.361Z,17.16
2018-10-19T08:54:42.867Z,16.48
2018-10-19T08:57:13.340Z,16.09
2018-10-19T08:59:43.871Z,16.13
2018-10-19T09:02:14.880Z,15.80
2018-10-19T09:04:46.132Z,15.20
2018-10-19T09:07:16.422Z,15.38
2018-10-19T09:09:47.012Z,14.53
2018-10-19T09:12:17.311Z,14.59
2018-10-19T09:14:55.352Z,14.74
2018-10-19T09:17:25.901Z,14.07
2018-10-19T09:19:56.351Z,13.79
2018-10-19T09:22:26.917Z,13.66
2018-10-19T09:24:57.371Z,13.60
2018-10-19T09:27:27.775Z,13.56
2018-10-19T09:29:58.168Z,14.06
2018-10-19T09:32:28.547Z,13.18
2018-10-19T09:34:59.042Z,13.40
2018-10-19T09:37:29.407Z,14.18
2018-10-19T09:39:59.880Z,14.52
2018-10-19T09:42:30.268Z,14.44
2018-10-19T09:45:00.658Z,14.22
2018-10-19T09:47:31.137Z,14.24
2018-10-19T09:50:01.468Z,14.06
2018-10-19T09:52:31.962Z,13.83
2018-10-19T09:55:02.495Z,13.46
2018-10-19T09:57:33.055Z,13.56
2018-10-19T10:00:03.624Z,13.36
2018-10-19T10:02:34.232Z,13.71
2018-10-19T10:05:04.830Z,14.22
2018-10-19T10:07:35.060Z,14.31
2018-10-19T10:10:05.815Z,14.48
2018-10-19T10:12:36.135Z,14.62
2018-10-19T10:15:06.909Z,14.73
2018-10-19T10:17:37.384Z,14.78
2018-10-19T10:20:08.787Z,15.08
2018-10-19T10:22:38.967Z,14.49
2018-10-19T10:25:10.280Z,13.85
2018-10-19T10:27:40.772Z,14.06
2018-10-19T10:30:12.432Z,14.12
2018-10-19T10:32:42.888Z,14.29
2018-10-19T10:35:13.219Z,14.07
2018-10-19T10:37:43.601Z,14.33
2018-10-19T10:40:14.290Z,13.94
2018-10-19T10:42:44.721Z,14.24
2018-10-19T10:45:15.167Z,13.90
2018-10-19T10:47:45.782Z,13.69
2018-10-19T10:50:16.040Z,13.78
2018-10-19T10:52:46.506Z,14.14
2018-10-19T10:55:17.063Z,14.53
2018-10-19T10:57:47.879Z,14.66
2018-10-19T11:00:18.348Z,14.51
2018-10-19T11:02:48.760Z,14.53
2018-10-19T11:05:19.229Z,14.47
2018-10-19T11:07:49.620Z,14.62
2018-10-19T11:10:19.989Z,14.83
2018-10-19T11:12:50.744Z,14.49
2018-10-19T11:15:21.134Z,14.43
2018-10-19T11:17:51.577Z,14.80
2018-10-19T11:20:22.216Z,14.08
2018-10-19T11:22:52.783Z,14.41
2018-10-19T11:25:23.079Z,14.02
2018-10-19T11:27:53.557Z,14.10
2018-10-19T11:30:24.057Z,13.97
2018-10-19T11:32:54.472Z,13.95
2018-10-19T11:35:24.922Z,14.22
2018-10-19T11:37:55.357Z,14.27
2018-10-19T11:40:32.266Z,14.16
2018-10-19T11:43:02.797Z,14.23
2018-10-19T11:45:33.985Z,14.61
2018-10-19T11:48:04.436Z,14.67
2018-10-19T11:50:34.843Z,14.79
2018-10-19T11:53:05.445Z,14.15
2018-10-19T11:55:35.903Z,13.85
2018-10-19T11:58:06.355Z,14.18
2018-10-19T12:00:36.920Z,13.98
2018-10-19T12:03:07.293Z,13.94
2018-10-19T12:05:37.664Z,14.28
2018-10-19T12:08:08.044Z,14.18
2018-10-19T12:10:38.554Z,14.48
2018-10-19T12:13:08.959Z,14.40
2018-10-19T12:15:39.473Z,14.47
2018-10-19T12:18:09.894Z,14.50
2018-10-19T12:20:40.236Z,14.55
2018-10-19T12:23:10.532Z,14.29
2018-10-19T12:25:41.111Z,14.16
2018-10-19T12:28:11.488Z,14.38
2018-10-19T12:30:41.952Z,14.34
2018-10-19T12:33:12.560Z,14.57
2018-10-19T12:35:50.699Z,14.80
2018-10-19T12:38:21.067Z,14.50
2018-10-19T12:40:51.441Z,14.33
2018-10-19T12:43:21.853Z,14.36
2018-10-19T12:46:36.297Z,14.44
2018-10-19T12:49:06.890Z,14.56
2018-10-19T12:51:37.593Z,14.61
2018-10-19T12:54:08.406Z,14.57
2018-10-19T12:56:38.729Z,14.40
2018-10-19T12:59:09.313Z,14.61
2018-10-19T13:01:39.809Z,14.96
2018-10-19T13:04:10.213Z,14.87
2018-10-19T13:06:40.773Z,14.81
2018-10-19T13:09:13.291Z,14.85
2018-10-19T13:11:43.680Z,14.78
2018-10-19T13:14:14.092Z,14.91
2018-10-19T13:16:44.350Z,14.48
2018-10-19T13:19:14.813Z,14.56
2018-10-19T13:21:45.119Z,14.91
2018-10-19T13:24:15.556Z,14.78
2018-10-19T13:26:45.948Z,14.71
2018-10-19T13:29:16.343Z,14.83
2018-10-19T13:31:46.719Z,15.05
2018-10-19T13:34:17.152Z,14.86
2018-10-19T13:36:47.740Z,14.82
2018-10-19T13:39:17.972Z,14.68
2018-10-19T13:41:48.396Z,14.64
2018-10-19T13:44:19.253Z,14.67
2018-10-19T13:46:49.834Z,14.61
2018-10-19T13:49:20.283Z,14.66
2018-10-19T13:51:51.362Z,14.82
2018-10-19T13:54:21.797Z,14.56
2018-10-19T13:56:52.285Z,14.46
2018-10-19T13:59:22.555Z,14.55
2018-10-19T14:01:52.895Z,14.46
2018-10-19T14:04:23.237Z,14.64
2018-10-19T14:06:53.583Z,14.53
2018-10-19T14:09:23.837Z,14.49
2018-10-19T14:11:54.223Z,14.75
2018-10-19T14:14:24.638Z,14.68
2018-10-19T14:16:55.016Z,14.77
2018-10-19T14:19:25.516Z,14.58
2018-10-19T14:21:55.955Z,14.38
2018-10-19T14:24:26.144Z,14.60
2018-10-19T14:26:56.530Z,14.57
2018-10-19T14:29:27.110Z,14.64
2018-10-19T14:31:57.892Z,14.63
2018-10-19T14:34:28.379Z,14.53
2018-10-19T14:36:58.855Z,14.39
2018-10-19T14:39:29.451Z,14.24
2018-10-19T14:42:00.559Z,14.10
2018-10-19T14:44:30.933Z,14.02
2018-10-19T14:47:01.212Z,14.06
2018-10-19T14:49:31.565Z,14.09
2018-10-19T14:52:02.092Z,14.06
2018-10-19T14:54:32.611Z,13.95
2018-10-19T14:57:03.259Z,13.88
2018-10-19T14:59:33.721Z,13.89
2018-10-19T15:02:04.100Z,13.83
2018-10-19T15:04:34.521Z,13.99
2018-10-19T15:07:05.142Z,13.80
2018-10-19T15:09:35.571Z,13.90
2018-10-19T15:12:06.273Z,13.92
2018-10-19T15:14:37.898Z,13.69
2018-10-19T15:17:08.884Z,13.68
2018-10-19T15:19:39.327Z,13.62
2018-10-19T15:22:09.789Z,13.50
2018-10-19T15:24:40.156Z,13.47
2018-10-19T15:27:10.863Z,13.45
2018-10-19T15:29:41.320Z,13.29
2018-10-19T15:32:11.849Z,13.24
2018-10-19T15:34:42.418Z,13.14
2018-10-19T15:37:12.984Z,13.17
2018-10-19T15:39:43.370Z,13.07
2018-10-19T15:42:13.703Z,13.05
2018-10-19T15:44:44.011Z,12.89
2018-10-19T15:47:14.396Z,12.75
2018-10-19T15:49:44.780Z,12.58
2018-10-19T15:52:15.384Z,12.45
2018-10-19T15:54:45.744Z,12.34
2018-10-19T15:57:16.158Z,12.29
2018-10-19T15:59:46.611Z,12.32
2018-10-19T16:02:17.169Z,12.25
2018-10-19T16:04:48.354Z,12.11
2018-10-19T16:07:19.445Z,11.97
2018-10-19T16:09:49.888Z,11.84
2018-10-19T16:12:20.257Z,11.68
2018-10-19T16:14:50.633Z,11.68
2018-10-19T16:17:20.997Z,11.69
2018-10-19T16:19:51.346Z,11.65
2018-10-19T16:22:21.887Z,11.68
2018-10-19T16:24:52.246Z,11.67
2018-10-19T16:27:22.684Z,11.65
2018-10-19T16:29:53.013Z,11.51
2018-10-19T16:32:23.588Z,11.40
2018-10-19T16:34:54.019Z,11.23
2018-10-19T16:37:24.339Z,11.09
2018-10-19T16:39:54.716Z,10.99
2018-10-19T16:42:25.176Z,10.91
2018-10-19T16:44:55.604Z,10.85
2018-10-19T16:47:26.091Z,10.77
2018-10-19T16:49:56.555Z,10.72
2018-10-19T16:52:27.038Z,10.69
2018-10-19T16:54:57.392Z,10.60
2018-10-19T16:57:27.787Z,10.54
2018-10-19T16:59:58.308Z,10.44
2018-10-19T17:02:28.979Z,10.35
2018-10-19T17:04:59.372Z,10.32
2018-10-19T17:07:29.935Z,10.32
2018-10-19T17:10:00.445Z,10.26
2018-10-19T17:12:30.895Z,10.21
2018-10-19T17:15:01.207Z,10.14
2018-10-19T17:17:31.636Z,10.04
2018-10-19T17:20:01.938Z,10.00
2018-10-19T17:22:32.433Z,9.95
2018-10-19T17:25:02.919Z,9.92
2018-10-19T17:27:33.356Z,9.86
2018-10-19T17:30:03.754Z,9.82
2018-10-19T17:32:34.211Z,9.77
2018-10-19T17:35:04.861Z,9.73
2018-10-19T17:37:35.509Z,9.72
2018-10-19T17:40:07.142Z,9.71
2018-10-19T17:42:37.547Z,9.74
2018-10-19T17:45:10.131Z,9.69
2018-10-19T17:47:41.671Z,9.80
2018-10-19T17:50:12.802Z,9.78
2018-10-19T17:52:43.386Z,9.78
2018-10-19T17:55:13.760Z,9.71
2018-10-19T17:57:44.260Z,9.80
2018-10-19T18:00:14.673Z,9.95
2018-10-19T18:02:44.942Z,9.97
2018-10-19T18:05:15.491Z,10.09
2018-10-19T18:07:45.891Z,10.04
2018-10-19T18:10:16.395Z,9.96
2018-10-19T18:12:46.677Z,10.04
2018-10-19T18:15:17.085Z,10.03
2018-10-19T18:17:47.395Z,9.83
2018-10-19T18:20:17.892Z,9.72
2018-10-19T18:22:48.372Z,9.88
2018-10-19T18:25:18.540Z,9.87
2018-10-19T18:27:49.015Z,9.96
2018-10-19T18:30:19.432Z,9.84
2018-10-19T18:32:50.128Z,9.61
2018-10-19T18:35:20.764Z,9.39
2018-10-19T18:37:51.604Z,9.28
2018-10-19T18:40:22.404Z,9.38
2018-10-19T18:42:53.598Z,9.32
2018-10-19T18:45:24.698Z,9.43
2018-10-19T18:47:55.948Z,9.29
2018-10-19T18:50:27.476Z,9.31
2018-10-19T18:52:58.744Z,9.39
2018-10-19T18:55:30.709Z,9.47
2018-10-19T18:58:02.452Z,9.38
2018-10-19T19:00:34.228Z,9.23
2018-10-19T19:03:05.881Z,9.14
2018-10-19T19:05:37.807Z,9.08
2018-10-19T19:08:09.706Z,9.03
2018-10-19T19:10:41.633Z,8.96
2018-10-19T19:13:18.262Z,8.88
2018-10-19T19:15:50.154Z,8.81
2018-10-19T19:18:21.930Z,8.68
2018-10-19T19:20:53.273Z,8.68
2018-10-19T19:23:25.161Z,8.72
2018-10-19T19:26:02.079Z,8.65
2018-10-19T19:28:33.996Z,8.59
2018-10-19T19:31:05.631Z,8.59
2018-10-19T19:33:42.725Z,8.59
2018-10-19T19:36:14.198Z,8.54
2018-10-19T19:38:45.436Z,8.55
2018-10-19T19:41:21.777Z,8.66
2018-10-19T19:43:52.699Z,8.74
2018-10-19T19:46:23.218Z,8.73
2018-10-19T19:48:58.982Z,8.64
2018-10-19T19:51:29.818Z,8.55
2018-10-19T19:54:01.381Z,8.52
2018-10-19T19:56:31.829Z,8.66
2018-10-19T19:59:02.393Z,8.68
2018-10-19T20:01:32.728Z,8.58
2018-10-19T20:04:03.414Z,8.52
2018-10-19T20:06:33.931Z,8.45
2018-10-19T20:09:05.653Z,8.50
2018-10-19T20:11:36.026Z,8.50
2018-10-19T20:14:06.545Z,8.46
2018-10-19T20:16:36.945Z,8.44
2018-10-19T20:19:07.815Z,8.37
2018-10-19T20:21:38.132Z,8.38
2018-10-19T20:24:09.112Z,8.31
2018-10-19T20:26:39.513Z,8.26
2018-10-19T20:29:10.230Z,8.26
2018-10-19T20:31:40.564Z,8.35
2018-10-19T20:34:11.542Z,8.37
2018-10-19T20:36:41.828Z,8.32
2018-10-19T20:39:13.324Z,8.27
2018-10-19T20:41:43.609Z,8.27
2018-10-19T20:44:13.996Z,8.28
2018-10-19T20:46:44.292Z,8.27
2018-10-19T20:49:14.864Z,8.39
2018-10-19T20:51:45.418Z,8.53
2018-10-19T20:54:15.723Z,8.37
2018-10-19T20:56:46.003Z,8.28
2018-10-19T20:59:16.744Z,8.19
2018-10-19T21:01:47.223Z,8.20
2018-10-19T21:04:17.748Z,8.13
2018-10-19T21:06:47.814Z,8.08
2018-10-19T21:09:17.903Z,8.00
2018-10-19T21:11:47.935Z,7.93
2018-10-19T21:14:18.028Z,7.77
2018-10-19T21:16:48.067Z,7.75
2018-10-19T21:19:18.483Z,7.68
2018-10-19T21:21:48.875Z,7.51
2018-10-19T21:24:19.246Z,7.32
2018-10-19T21:26:50.207Z,7.37
2018-10-19T21:29:20.828Z,7.35
2018-10-19T21:31:51.091Z,7.35
2018-10-19T21:34:21.369Z,7.21
2018-10-19T21:36:51.685Z,7.12
2018-10-19T21:39:22.037Z,7.05
2018-10-19T21:41:52.540Z,7.02
2018-10-19T21:44:23.004Z,6.94
2018-10-19T21:46:53.723Z,6.91
2018-10-19T21:49:24.056Z,6.84
2018-10-19T21:51:54.435Z,6.73
2018-10-19T21:54:24.919Z,6.68
2018-10-19T21:56:55.341Z,6.66
2018-10-19T21:59:25.777Z,6.60
2018-10-19T22:01:55.998Z,6.51
2018-10-19T22:04:26.426Z,6.51
2018-10-19T22:06:56.928Z,6.46
2018-10-19T22:09:27.433Z,6.41
2018-10-19T22:11:57.904Z,6.41
2018-10-19T22:14:28.129Z,6.36
2018-10-19T22:16:58.431Z,6.33
2018-10-19T22:19:28.853Z,6.30
2018-10-19T22:21:59.360Z,6.28
2018-10-19T22:24:29.668Z,6.32
2018-10-19T22:27:00.086Z,6.28
2018-10-19T22:29:30.544Z,6.20
2018-10-19T22:32:00.918Z,6.13
2018-10-19T22:34:31.303Z,6.15
2018-10-19T22:37:02.584Z,6.07
2018-10-19T22:39:32.991Z,6.05
2018-10-19T22:42:03.391Z,6.00
2018-10-19T22:44:34.023Z,6.01
2018-10-19T22:47:04.434Z,6.02
2018-10-19T22:49:34.803Z,6.02
2018-10-19T22:52:05.126Z,5.95
2018-10-19T22:54:35.487Z,5.93
2018-10-19T22:57:05.960Z,5.88
2018-10-19T22:59:36.409Z,5.89
2018-10-19T23:02:07.249Z,5.89
2018-10-19T23:04:37.682Z,5.91
2018-10-19T23:07:08.243Z,5.88
2018-10-19T23:09:38.808Z,5.87
2018-10-19T23:12:09.812Z,5.88
2018-10-19T23:14:40.155Z,5.87
2018-10-19T23:17:10.869Z,5.93
2018-10-19T23:19:41.227Z,6.02
2018-10-19T23:22:11.573Z,6.05
2018-10-19T23:24:41.956Z,6.15
2018-10-19T23:27:12.241Z,6.27
2018-10-19T23:29:42.856Z,6.30
2018-10-19T23:32:13.423Z,6.42
2018-10-19T23:34:43.986Z,6.39
2018-10-19T23:37:14.249Z,6.40
2018-10-19T23:39:44.643Z,6.34
2018-10-19T23:42:14.973Z,6.35
2018-10-19T23:44:45.423Z,6.34
2018-10-19T23:47:16.078Z,6.30
2018-10-19T23:49:46.371Z,6.24
2018-10-19T23:52:16.753Z,6.32
2018-10-19T23:54:47.310Z,6.26
2018-10-19T23:57:17.748Z,6.22
2018-10-19T23:59:48.203Z,6.19
